sensor_id;sensor_type;location;lat;lon;timestamp;P1;durP1;ratioP1;P2;durP2;ratioP2
52708;SDS011;38606;52.986;6.980;2023-07-31T00:00:15;3.80;;;2.17;;
52708;SDS011;38606;52.986;6.980;2023-07-31T00:02:41;4.22;;;2.00;;
52708;SDS011;38606;52.986;6.980;2023-07-31T00:05:08;3.72;;;2.15;;
52708;SDS011;38606;52.986;6.980;2023-07-31T00:07:35;5.13;;;2.30;;
52708;SDS011;38606;52.986;6.980;2023-07-31T00:10:00;3.60;;;2.25;;
52708;SDS011;38606;52.986;6.980;2023-07-31T00:12:26;3.92;;;2.40;;
52708;SDS011;38606;52.986;6.980;2023-07-31T00:14:52;3.58;;;2.17;;
52708;SDS011;38606;52.986;6.980;2023-07-31T00:17:17;4.07;;;2.40;;
52708;SDS011;38606;52.986;6.980;2023-07-31T00:19:43;3.83;;;2.20;;
52708;SDS011;38606;52.986;6.980;2023-07-31T00:22:11;4.50;;;2.42;;
52708;SDS011;38606;52.986;6.980;2023-07-31T00:24:37;4.15;;;2.05;;
52708;SDS011;38606;52.986;6.980;2023-07-31T00:27:03;4.35;;;2.50;;
52708;SDS011;38606;52.986;6.980;2023-07-31T00:29:29;2.70;;;1.95;;
52708;SDS011;38606;52.986;6.980;2023-07-31T00:31:54;2.47;;;2.13;;
52708;SDS011;38606;52.986;6.980;2023-07-31T00:34:20;4.00;;;2.67;;
52708;SDS011;38606;52.986;6.980;2023-07-31T00:36:45;4.38;;;2.25;;
52708;SDS011;38606;52.986;6.980;2023-07-31T00:39:11;3.25;;;2.20;;
52708;SDS011;38606;52.986;6.980;2023-07-31T00:41:37;4.80;;;2.10;;
52708;SDS011;38606;52.986;6.980;2023-07-31T00:44:02;4.68;;;2.70;;
52708;SDS011;38606;52.986;6.980;2023-07-31T00:46:28;3.88;;;2.17;;
52708;SDS011;38606;52.986;6.980;2023-07-31T00:48:54;4.85;;;2.53;;
52708;SDS011;38606;52.986;6.980;2023-07-31T00:51:20;3.70;;;2.15;;
52708;SDS011;38606;52.986;6.980;2023-07-31T00:53:46;4.00;;;2.40;;
52708;SDS011;38606;52.986;6.980;2023-07-31T00:56:12;3.80;;;2.22;;
52708;SDS011;38606;52.986;6.980;2023-07-31T00:58:38;6.35;;;2.60;;
52708;SDS011;38606;52.986;6.980;2023-07-31T01:01:04;3.45;;;2.28;;
52708;SDS011;38606;52.986;6.980;2023-07-31T01:03:30;4.07;;;2.50;;
52708;SDS011;38606;52.986;6.980;2023-07-31T01:08:40;4.72;;;2.53;;
52708;SDS011;38606;52.986;6.980;2023-07-31T01:11:09;4.43;;;2.42;;
52708;SDS011;38606;52.986;6.980;2023-07-31T01:13:42;4.38;;;2.63;;
52708;SDS011;38606;52.986;6.980;2023-07-31T01:16:09;4.65;;;2.55;;
52708;SDS011;38606;52.986;6.980;2023-07-31T01:18:34;3.42;;;2.10;;
52708;SDS011;38606;52.986;6.980;2023-07-31T01:24:08;7.18;;;2.20;;
52708;SDS011;38606;52.986;6.980;2023-07-31T01:27:09;3.35;;;2.33;;
52708;SDS011;38606;52.986;6.980;2023-07-31T01:32:03;5.68;;;2.20;;
52708;SDS011;38606;52.986;6.980;2023-07-31T01:34:31;2.92;;;2.17;;
52708;SDS011;38606;52.986;6.980;2023-07-31T01:36:58;5.07;;;2.17;;
52708;SDS011;38606;52.986;6.980;2023-07-31T01:39:24;5.60;;;2.08;;
52708;SDS011;38606;52.986;6.980;2023-07-31T01:41:50;3.40;;;2.00;;
52708;SDS011;38606;52.986;6.980;2023-07-31T01:44:16;4.13;;;2.08;;
52708;SDS011;38606;52.986;6.980;2023-07-31T01:46:41;2.88;;;2.25;;
52708;SDS011;38606;52.986;6.980;2023-07-31T01:49:07;5.30;;;1.58;;
52708;SDS011;38606;52.986;6.980;2023-07-31T01:51:33;2.97;;;1.70;;
52708;SDS011;38606;52.986;6.980;2023-07-31T01:54:01;2.33;;;1.85;;
52708;SDS011;38606;52.986;6.980;2023-07-31T01:56:27;2.03;;;1.73;;
52708;SDS011;38606;52.986;6.980;2023-07-31T01:58:53;2.67;;;1.50;;
52708;SDS011;38606;52.986;6.980;2023-07-31T02:01:19;3.45;;;1.60;;
52708;SDS011;38606;52.986;6.980;2023-07-31T02:03:45;2.63;;;1.55;;
52708;SDS011;38606;52.986;6.980;2023-07-31T02:06:10;3.00;;;1.60;;
52708;SDS011;38606;52.986;6.980;2023-07-31T02:08:36;2.38;;;1.20;;
52708;SDS011;38606;52.986;6.980;2023-07-31T02:11:02;1.17;;;0.90;;
52708;SDS011;38606;52.986;6.980;2023-07-31T02:13:28;4.10;;;1.52;;
52708;SDS011;38606;52.986;6.980;2023-07-31T02:15:53;1.38;;;1.00;;
52708;SDS011;38606;52.986;6.980;2023-07-31T02:18:19;1.15;;;0.90;;
52708;SDS011;38606;52.986;6.980;2023-07-31T02:20:51;1.27;;;0.65;;
52708;SDS011;38606;52.986;6.980;2023-07-31T02:23:20;1.85;;;0.70;;
52708;SDS011;38606;52.986;6.980;2023-07-31T02:25:46;0.77;;;0.70;;
52708;SDS011;38606;52.986;6.980;2023-07-31T02:28:12;1.30;;;0.80;;
52708;SDS011;38606;52.986;6.980;2023-07-31T02:30:38;0.95;;;0.88;;
52708;SDS011;38606;52.986;6.980;2023-07-31T02:33:04;3.17;;;0.90;;
52708;SDS011;38606;52.986;6.980;2023-07-31T02:35:30;3.65;;;1.15;;
52708;SDS011;38606;52.986;6.980;2023-07-31T02:37:56;2.78;;;0.90;;
52708;SDS011;38606;52.986;6.980;2023-07-31T02:40:22;0.90;;;0.65;;
52708;SDS011;38606;52.986;6.980;2023-07-31T02:42:48;1.00;;;0.75;;
52708;SDS011;38606;52.986;6.980;2023-07-31T02:45:14;1.23;;;1.00;;
52708;SDS011;38606;52.986;6.980;2023-07-31T02:47:39;1.00;;;0.80;;
52708;SDS011;38606;52.986;6.980;2023-07-31T02:50:05;0.70;;;0.70;;
52708;SDS011;38606;52.986;6.980;2023-07-31T02:52:31;0.75;;;0.70;;
52708;SDS011;38606;52.986;6.980;2023-07-31T02:54:57;1.55;;;1.10;;
52708;SDS011;38606;52.986;6.980;2023-07-31T02:57:23;1.88;;;1.00;;
52708;SDS011;38606;52.986;6.980;2023-07-31T02:59:49;1.35;;;0.90;;
52708;SDS011;38606;52.986;6.980;2023-07-31T03:02:14;1.60;;;1.20;;
52708;SDS011;38606;52.986;6.980;2023-07-31T03:04:40;1.02;;;0.82;;
52708;SDS011;38606;52.986;6.980;2023-07-31T03:07:06;1.00;;;0.80;;
52708;SDS011;38606;52.986;6.980;2023-07-31T03:09:32;1.20;;;0.98;;
52708;SDS011;38606;52.986;6.980;2023-07-31T03:11:57;2.92;;;1.00;;
52708;SDS011;38606;52.986;6.980;2023-07-31T03:14:23;0.82;;;0.70;;
52708;SDS011;38606;52.986;6.980;2023-07-31T03:16:51;2.03;;;0.80;;
52708;SDS011;38606;52.986;6.980;2023-07-31T03:19:17;2.10;;;0.90;;
52708;SDS011;38606;52.986;6.980;2023-07-31T03:21:42;0.60;;;0.60;;
52708;SDS011;38606;52.986;6.980;2023-07-31T03:24:08;1.85;;;0.80;;
52708;SDS011;38606;52.986;6.980;2023-07-31T03:26:34;2.67;;;0.98;;
52708;SDS011;38606;52.986;6.980;2023-07-31T03:29:01;1.38;;;1.02;;
52708;SDS011;38606;52.986;6.980;2023-07-31T03:31:27;2.05;;;0.93;;
52708;SDS011;38606;52.986;6.980;2023-07-31T03:33:53;1.00;;;0.90;;
52708;SDS011;38606;52.986;6.980;2023-07-31T03:36:18;0.70;;;0.63;;
52708;SDS011;38606;52.986;6.980;2023-07-31T03:38:44;2.15;;;0.98;;
52708;SDS011;38606;52.986;6.980;2023-07-31T03:41:10;0.95;;;0.95;;
52708;SDS011;38606;52.986;6.980;2023-07-31T03:43:36;1.45;;;1.30;;
52708;SDS011;38606;52.986;6.980;2023-07-31T03:46:02;2.20;;;1.08;;
52708;SDS011;38606;52.986;6.980;2023-07-31T03:48:28;0.60;;;0.60;;
52708;SDS011;38606;52.986;6.980;2023-07-31T03:50:54;0.80;;;0.80;;
52708;SDS011;38606;52.986;6.980;2023-07-31T03:53:20;1.00;;;0.90;;
52708;SDS011;38606;52.986;6.980;2023-07-31T03:55:46;1.60;;;0.90;;
52708;SDS011;38606;52.986;6.980;2023-07-31T03:58:11;0.80;;;0.80;;
52708;SDS011;38606;52.986;6.980;2023-07-31T04:00:37;1.10;;;1.00;;
52708;SDS011;38606;52.986;6.980;2023-07-31T04:03:04;1.08;;;0.90;;
52708;SDS011;38606;52.986;6.980;2023-07-31T04:05:31;2.67;;;0.88;;
52708;SDS011;38606;52.986;6.980;2023-07-31T04:07:57;1.67;;;0.90;;
52708;SDS011;38606;52.986;6.980;2023-07-31T04:10:23;0.98;;;0.80;;
52708;SDS011;38606;52.986;6.980;2023-07-31T04:12:49;1.48;;;1.00;;
52708;SDS011;38606;52.986;6.980;2023-07-31T04:15:15;1.88;;;0.80;;
52708;SDS011;38606;52.986;6.980;2023-07-31T04:17:40;2.00;;;1.23;;
52708;SDS011;38606;52.986;6.980;2023-07-31T04:20:07;1.35;;;0.80;;
52708;SDS011;38606;52.986;6.980;2023-07-31T04:22:33;1.50;;;0.80;;
52708;SDS011;38606;52.986;6.980;2023-07-31T04:24:59;1.42;;;0.80;;
52708;SDS011;38606;52.986;6.980;2023-07-31T04:27:25;1.25;;;0.90;;
52708;SDS011;38606;52.986;6.980;2023-07-31T04:29:50;1.08;;;0.70;;
52708;SDS011;38606;52.986;6.980;2023-07-31T04:32:16;0.70;;;0.70;;
52708;SDS011;38606;52.986;6.980;2023-07-31T04:34:42;1.48;;;0.80;;
52708;SDS011;38606;52.986;6.980;2023-07-31T04:37:08;0.60;;;0.60;;
52708;SDS011;38606;52.986;6.980;2023-07-31T04:39:34;1.17;;;1.00;;
52708;SDS011;38606;52.986;6.980;2023-07-31T04:41:59;2.08;;;1.00;;
52708;SDS011;38606;52.986;6.980;2023-07-31T04:44:25;2.65;;;0.80;;
52708;SDS011;38606;52.986;6.980;2023-07-31T04:46:51;2.08;;;1.10;;
52708;SDS011;38606;52.986;6.980;2023-07-31T04:49:16;1.25;;;1.10;;
52708;SDS011;38606;52.986;6.980;2023-07-31T04:51:42;2.17;;;1.20;;
52708;SDS011;38606;52.986;6.980;2023-07-31T04:54:08;3.25;;;0.90;;
52708;SDS011;38606;52.986;6.980;2023-07-31T04:56:33;2.80;;;1.15;;
52708;SDS011;38606;52.986;6.980;2023-07-31T04:58:59;2.28;;;0.80;;
52708;SDS011;38606;52.986;6.980;2023-07-31T05:01:25;1.13;;;0.80;;
52708;SDS011;38606;52.986;6.980;2023-07-31T05:03:51;1.30;;;1.20;;
52708;SDS011;38606;52.986;6.980;2023-07-31T05:06:16;1.25;;;0.77;;
52708;SDS011;38606;52.986;6.980;2023-07-31T05:08:42;0.95;;;0.70;;
52708;SDS011;38606;52.986;6.980;2023-07-31T05:11:08;1.65;;;0.73;;
52708;SDS011;38606;52.986;6.980;2023-07-31T05:13:33;1.27;;;0.90;;
52708;SDS011;38606;52.986;6.980;2023-07-31T05:15:59;1.70;;;1.00;;
52708;SDS011;38606;52.986;6.980;2023-07-31T05:18:25;2.70;;;1.00;;
52708;SDS011;38606;52.986;6.980;2023-07-31T05:20:50;3.55;;;0.93;;
52708;SDS011;38606;52.986;6.980;2023-07-31T05:23:16;6.85;;;1.30;;
52708;SDS011;38606;52.986;6.980;2023-07-31T05:25:42;4.13;;;0.90;;
52708;SDS011;38606;52.986;6.980;2023-07-31T05:28:07;1.70;;;1.00;;
52708;SDS011;38606;52.986;6.980;2023-07-31T05:30:33;6.20;;;1.05;;
52708;SDS011;38606;52.986;6.980;2023-07-31T05:32:59;3.30;;;1.30;;
52708;SDS011;38606;52.986;6.980;2023-07-31T05:35:25;1.42;;;0.95;;
52708;SDS011;38606;52.986;6.980;2023-07-31T05:37:50;4.22;;;1.00;;
52708;SDS011;38606;52.986;6.980;2023-07-31T05:40:16;1.27;;;0.98;;
52708;SDS011;38606;52.986;6.980;2023-07-31T05:42:42;1.60;;;1.10;;
52708;SDS011;38606;52.986;6.980;2023-07-31T05:45:07;2.15;;;1.20;;
52708;SDS011;38606;52.986;6.980;2023-07-31T05:47:33;1.50;;;1.10;;
52708;SDS011;38606;52.986;6.980;2023-07-31T05:49:59;2.60;;;1.00;;
52708;SDS011;38606;52.986;6.980;2023-07-31T05:52:25;3.03;;;1.10;;
52708;SDS011;38606;52.986;6.980;2023-07-31T05:54:51;5.30;;;2.38;;
52708;SDS011;38606;52.986;6.980;2023-07-31T05:57:16;6.28;;;2.58;;
52708;SDS011;38606;52.986;6.980;2023-07-31T05:59:42;8.73;;;3.75;;
52708;SDS011;38606;52.986;6.980;2023-07-31T06:02:08;10.07;;;4.38;;
52708;SDS011;38606;52.986;6.980;2023-07-31T06:04:34;17.77;;;5.60;;
52708;SDS011;38606;52.986;6.980;2023-07-31T06:06:59;12.00;;;4.93;;
52708;SDS011;38606;52.986;6.980;2023-07-31T06:09:25;18.23;;;5.10;;
52708;SDS011;38606;52.986;6.980;2023-07-31T06:11:51;22.60;;;6.28;;
52708;SDS011;38606;52.986;6.980;2023-07-31T06:14:17;18.40;;;5.78;;
52708;SDS011;38606;52.986;6.980;2023-07-31T06:16:43;21.05;;;6.35;;
52708;SDS011;38606;52.986;6.980;2023-07-31T06:19:09;16.20;;;5.88;;
52708;SDS011;38606;52.986;6.980;2023-07-31T06:21:35;22.58;;;7.03;;
52708;SDS011;38606;52.986;6.980;2023-07-31T06:24:07;22.38;;;7.32;;
52708;SDS011;38606;52.986;6.980;2023-07-31T06:26:33;19.55;;;6.35;;
52708;SDS011;38606;52.986;6.980;2023-07-31T06:28:58;25.48;;;7.38;;
52708;SDS011;38606;52.986;6.980;2023-07-31T06:31:24;23.02;;;7.05;;
52708;SDS011;38606;52.986;6.980;2023-07-31T06:33:50;21.38;;;6.50;;
52708;SDS011;38606;52.986;6.980;2023-07-31T06:36:17;26.38;;;7.38;;
52708;SDS011;38606;52.986;6.980;2023-07-31T06:38:43;25.08;;;7.35;;
52708;SDS011;38606;52.986;6.980;2023-07-31T06:41:08;23.88;;;7.43;;
52708;SDS011;38606;52.986;6.980;2023-07-31T06:43:35;24.35;;;7.57;;
52708;SDS011;38606;52.986;6.980;2023-07-31T06:46:08;19.48;;;6.43;;
52708;SDS011;38606;52.986;6.980;2023-07-31T06:48:35;16.52;;;6.10;;
52708;SDS011;38606;52.986;6.980;2023-07-31T06:51:02;17.13;;;6.45;;
52708;SDS011;38606;52.986;6.980;2023-07-31T06:53:28;16.13;;;6.18;;
52708;SDS011;38606;52.986;6.980;2023-07-31T06:55:54;16.92;;;6.28;;
52708;SDS011;38606;52.986;6.980;2023-07-31T06:58:19;17.45;;;6.85;;
52708;SDS011;38606;52.986;6.980;2023-07-31T07:00:45;21.35;;;7.22;;
52708;SDS011;38606;52.986;6.980;2023-07-31T07:03:11;23.02;;;7.57;;
52708;SDS011;38606;52.986;6.980;2023-07-31T07:05:39;20.33;;;7.53;;
52708;SDS011;38606;52.986;6.980;2023-07-31T07:08:05;23.90;;;7.60;;
52708;SDS011;38606;52.986;6.980;2023-07-31T07:10:31;20.27;;;6.65;;
52708;SDS011;38606;52.986;6.980;2023-07-31T07:12:57;27.60;;;7.53;;
52708;SDS011;38606;52.986;6.980;2023-07-31T07:15:23;23.08;;;7.35;;
52708;SDS011;38606;52.986;6.980;2023-07-31T07:17:48;18.88;;;6.50;;
52708;SDS011;38606;52.986;6.980;2023-07-31T07:20:14;21.52;;;7.13;;
52708;SDS011;38606;52.986;6.980;2023-07-31T07:22:40;23.85;;;7.60;;
52708;SDS011;38606;52.986;6.980;2023-07-31T07:25:08;24.40;;;8.07;;
52708;SDS011;38606;52.986;6.980;2023-07-31T07:27:34;19.85;;;7.13;;
52708;SDS011;38606;52.986;6.980;2023-07-31T07:30:00;22.70;;;8.13;;
52708;SDS011;38606;52.986;6.980;2023-07-31T07:32:25;18.60;;;8.05;;
52708;SDS011;38606;52.986;6.980;2023-07-31T07:34:51;26.02;;;8.50;;
52708;SDS011;38606;52.986;6.980;2023-07-31T07:37:17;22.40;;;7.80;;
52708;SDS011;38606;52.986;6.980;2023-07-31T07:39:43;18.30;;;7.00;;
52708;SDS011;38606;52.986;6.980;2023-07-31T07:42:09;14.95;;;6.72;;
52708;SDS011;38606;52.986;6.980;2023-07-31T07:44:35;16.38;;;6.03;;
52708;SDS011;38606;52.986;6.980;2023-07-31T07:47:00;14.15;;;5.72;;
52708;SDS011;38606;52.986;6.980;2023-07-31T07:49:26;11.77;;;5.20;;
52708;SDS011;38606;52.986;6.980;2023-07-31T07:51:52;10.43;;;4.68;;
52708;SDS011;38606;52.986;6.980;2023-07-31T07:54:18;9.95;;;4.65;;
52708;SDS011;38606;52.986;6.980;2023-07-31T07:56:45;10.82;;;4.30;;
52708;SDS011;38606;52.986;6.980;2023-07-31T07:59:11;9.65;;;4.28;;
52708;SDS011;38606;52.986;6.980;2023-07-31T08:01:36;10.00;;;4.40;;
52708;SDS011;38606;52.986;6.980;2023-07-31T08:04:02;9.10;;;4.55;;
52708;SDS011;38606;52.986;6.980;2023-07-31T08:06:28;9.70;;;4.55;;
52708;SDS011;38606;52.986;6.980;2023-07-31T08:08:54;11.98;;;4.32;;
52708;SDS011;38606;52.986;6.980;2023-07-31T08:11:20;7.97;;;3.75;;
52708;SDS011;38606;52.986;6.980;2023-07-31T08:13:48;7.65;;;3.55;;
52708;SDS011;38606;52.986;6.980;2023-07-31T08:16:13;7.20;;;3.78;;
52708;SDS011;38606;52.986;6.980;2023-07-31T08:18:39;8.55;;;3.55;;
52708;SDS011;38606;52.986;6.980;2023-07-31T08:21:05;13.80;;;4.05;;
52708;SDS011;38606;52.986;6.980;2023-07-31T08:23:31;7.43;;;3.33;;
52708;SDS011;38606;52.986;6.980;2023-07-31T08:25:57;7.20;;;3.33;;
52708;SDS011;38606;52.986;6.980;2023-07-31T08:28:22;6.07;;;2.78;;
52708;SDS011;38606;52.986;6.980;2023-07-31T08:30:48;8.05;;;3.00;;
52708;SDS011;38606;52.986;6.980;2023-07-31T08:33:15;6.38;;;2.80;;
52708;SDS011;38606;52.986;6.980;2023-07-31T08:35:41;8.77;;;3.70;;
52708;SDS011;38606;52.986;6.980;2023-07-31T08:38:06;6.82;;;3.47;;
52708;SDS011;38606;52.986;6.980;2023-07-31T08:40:35;6.22;;;3.40;;
52708;SDS011;38606;52.986;6.980;2023-07-31T08:43:02;5.00;;;3.13;;
52708;SDS011;38606;52.986;6.980;2023-07-31T08:45:28;7.43;;;3.30;;
52708;SDS011;38606;52.986;6.980;2023-07-31T08:47:55;6.70;;;3.10;;
52708;SDS011;38606;52.986;6.980;2023-07-31T08:50:22;7.32;;;3.20;;
52708;SDS011;38606;52.986;6.980;2023-07-31T08:52:48;6.53;;;3.25;;
52708;SDS011;38606;52.986;6.980;2023-07-31T08:55:15;4.40;;;2.88;;
52708;SDS011;38606;52.986;6.980;2023-07-31T08:57:41;3.88;;;2.50;;
52708;SDS011;38606;52.986;6.980;2023-07-31T09:00:08;3.58;;;2.55;;
52708;SDS011;38606;52.986;6.980;2023-07-31T09:02:41;5.20;;;2.72;;
52708;SDS011;38606;52.986;6.980;2023-07-31T09:05:13;7.00;;;2.38;;
52708;SDS011;38606;52.986;6.980;2023-07-31T09:07:41;5.80;;;2.70;;
52708;SDS011;38606;52.986;6.980;2023-07-31T09:10:11;6.25;;;2.63;;
52708;SDS011;38606;52.986;6.980;2023-07-31T09:12:38;4.28;;;2.63;;
52708;SDS011;38606;52.986;6.980;2023-07-31T09:15:04;3.75;;;2.30;;
52708;SDS011;38606;52.986;6.980;2023-07-31T09:17:31;3.22;;;2.42;;
52708;SDS011;38606;52.986;6.980;2023-07-31T09:20:12;3.90;;;2.22;;
52708;SDS011;38606;52.986;6.980;2023-07-31T09:22:43;4.82;;;2.50;;
52708;SDS011;38606;52.986;6.980;2023-07-31T09:25:28;4.38;;;2.20;;
52708;SDS011;38606;52.986;6.980;2023-07-31T09:27:54;2.78;;;1.95;;
52708;SDS011;38606;52.986;6.980;2023-07-31T09:30:46;2.22;;;1.63;;
52708;SDS011;38606;52.986;6.980;2023-07-31T09:33:14;2.45;;;1.90;;
52708;SDS011;38606;52.986;6.980;2023-07-31T09:35:40;2.40;;;1.70;;
52708;SDS011;38606;52.986;6.980;2023-07-31T09:38:09;2.63;;;1.60;;
52708;SDS011;38606;52.986;6.980;2023-07-31T09:40:38;2.90;;;1.40;;
52708;SDS011;38606;52.986;6.980;2023-07-31T09:43:06;3.03;;;1.65;;
52708;SDS011;38606;52.986;6.980;2023-07-31T09:45:35;1.50;;;1.27;;
52708;SDS011;38606;52.986;6.980;2023-07-31T09:48:02;2.58;;;1.33;;
52708;SDS011;38606;52.986;6.980;2023-07-31T09:50:29;3.47;;;1.05;;
52708;SDS011;38606;52.986;6.980;2023-07-31T09:52:56;1.67;;;1.08;;
52708;SDS011;38606;52.986;6.980;2023-07-31T09:55:21;3.28;;;1.00;;
52708;SDS011;38606;52.986;6.980;2023-07-31T09:57:49;1.63;;;0.77;;
52708;SDS011;38606;52.986;6.980;2023-07-31T10:00:16;1.08;;;0.70;;
52708;SDS011;38606;52.986;6.980;2023-07-31T10:02:44;0.88;;;0.80;;
52708;SDS011;38606;52.986;6.980;2023-07-31T10:05:12;2.30;;;1.10;;
52708;SDS011;38606;52.986;6.980;2023-07-31T10:07:45;1.35;;;0.85;;
52708;SDS011;38606;52.986;6.980;2023-07-31T10:10:22;0.80;;;0.60;;
52708;SDS011;38606;52.986;6.980;2023-07-31T10:12:48;3.45;;;0.68;;
52708;SDS011;38606;52.986;6.980;2023-07-31T10:15:15;0.70;;;0.70;;
52708;SDS011;38606;52.986;6.980;2023-07-31T10:17:41;1.08;;;0.60;;
52708;SDS011;38606;52.986;6.980;2023-07-31T10:20:08;1.00;;;0.60;;
52708;SDS011;38606;52.986;6.980;2023-07-31T10:22:36;1.30;;;0.60;;
52708;SDS011;38606;52.986;6.980;2023-07-31T10:25:02;0.98;;;0.75;;
52708;SDS011;38606;52.986;6.980;2023-07-31T10:27:28;1.10;;;1.00;;
52708;SDS011;38606;52.986;6.980;2023-07-31T10:29:57;0.60;;;0.60;;
52708;SDS011;38606;52.986;6.980;2023-07-31T10:32:24;0.60;;;0.60;;
52708;SDS011;38606;52.986;6.980;2023-07-31T10:34:51;0.75;;;0.50;;
52708;SDS011;38606;52.986;6.980;2023-07-31T10:37:28;0.63;;;0.50;;
52708;SDS011;38606;52.986;6.980;2023-07-31T10:40:06;1.15;;;0.50;;
52708;SDS011;38606;52.986;6.980;2023-07-31T10:42:47;1.05;;;0.60;;
52708;SDS011;38606;52.986;6.980;2023-07-31T10:50:31;0.60;;;0.60;;
52708;SDS011;38606;52.986;6.980;2023-07-31T10:55:48;0.63;;;0.60;;
52708;SDS011;38606;52.986;6.980;2023-07-31T10:58:18;0.80;;;0.60;;
52708;SDS011;38606;52.986;6.980;2023-07-31T11:00:45;0.50;;;0.50;;
52708;SDS011;38606;52.986;6.980;2023-07-31T11:03:13;0.70;;;0.70;;
52708;SDS011;38606;52.986;6.980;2023-07-31T11:05:41;1.00;;;0.73;;
52708;SDS011;38606;52.986;6.980;2023-07-31T11:08:17;1.10;;;1.00;;
52708;SDS011;38606;52.986;6.980;2023-07-31T11:10:49;2.05;;;0.80;;
52708;SDS011;38606;52.986;6.980;2023-07-31T11:13:34;1.00;;;0.90;;
52708;SDS011;38606;52.986;6.980;2023-07-31T11:16:04;0.80;;;0.80;;
52708;SDS011;38606;52.986;6.980;2023-07-31T11:18:30;0.60;;;0.60;;
52708;SDS011;38606;52.986;6.980;2023-07-31T11:20:55;0.80;;;0.80;;
52708;SDS011;38606;52.986;6.980;2023-07-31T11:23:22;1.00;;;0.90;;
52708;SDS011;38606;52.986;6.980;2023-07-31T11:25:48;1.08;;;0.98;;
52708;SDS011;38606;52.986;6.980;2023-07-31T11:28:16;2.40;;;0.70;;
52708;SDS011;38606;52.986;6.980;2023-07-31T11:30:43;0.90;;;0.90;;
52708;SDS011;38606;52.986;6.980;2023-07-31T11:33:10;2.08;;;0.70;;
52708;SDS011;38606;52.986;6.980;2023-07-31T11:35:44;0.50;;;0.50;;
52708;SDS011;38606;52.986;6.980;2023-07-31T11:38:11;0.77;;;0.60;;
52708;SDS011;38606;52.986;6.980;2023-07-31T11:40:46;0.70;;;0.70;;
52708;SDS011;38606;52.986;6.980;2023-07-31T11:43:12;0.70;;;0.70;;
52708;SDS011;38606;52.986;6.980;2023-07-31T11:45:42;0.90;;;0.60;;
52708;SDS011;38606;52.986;6.980;2023-07-31T11:48:45;0.60;;;0.60;;
52708;SDS011;38606;52.986;6.980;2023-07-31T11:51:05;1.75;;;0.57;;
52708;SDS011;38606;52.986;6.980;2023-07-31T11:56:08;0.85;;;0.50;;
52708;SDS011;38606;52.986;6.980;2023-07-31T11:58:38;0.47;;;0.47;;
52708;SDS011;38606;52.986;6.980;2023-07-31T12:01:05;1.45;;;0.43;;
52708;SDS011;38606;52.986;6.980;2023-07-31T12:03:32;0.50;;;0.50;;
52708;SDS011;38606;52.986;6.980;2023-07-31T12:05:59;0.85;;;0.63;;
52708;SDS011;38606;52.986;6.980;2023-07-31T12:08:25;6.07;;;0.70;;
52708;SDS011;38606;52.986;6.980;2023-07-31T12:10:52;1.92;;;0.50;;
52708;SDS011;38606;52.986;6.980;2023-07-31T12:13:25;0.40;;;0.40;;
52708;SDS011;38606;52.986;6.980;2023-07-31T12:15:55;0.60;;;0.60;;
52708;SDS011;38606;52.986;6.980;2023-07-31T12:18:23;1.63;;;0.60;;
52708;SDS011;38606;52.986;6.980;2023-07-31T12:23:23;1.75;;;0.60;;
52708;SDS011;38606;52.986;6.980;2023-07-31T12:26:04;0.80;;;0.50;;
52708;SDS011;38606;52.986;6.980;2023-07-31T12:28:45;3.47;;;0.80;;
52708;SDS011;38606;52.986;6.980;2023-07-31T12:31:13;2.97;;;1.10;;
52708;SDS011;38606;52.986;6.980;2023-07-31T12:33:42;10.70;;;1.40;;
52708;SDS011;38606;52.986;6.980;2023-07-31T12:36:15;2.72;;;0.90;;
52708;SDS011;38606;52.986;6.980;2023-07-31T12:38:51;2.22;;;0.57;;
52708;SDS011;38606;52.986;6.980;2023-07-31T12:41:17;1.50;;;0.70;;
52708;SDS011;38606;52.986;6.980;2023-07-31T12:43:43;2.25;;;0.57;;
52708;SDS011;38606;52.986;6.980;2023-07-31T12:46:10;2.30;;;0.57;;
52708;SDS011;38606;52.986;6.980;2023-07-31T12:48:36;2.42;;;0.50;;
52708;SDS011;38606;52.986;6.980;2023-07-31T12:51:02;0.93;;;0.40;;
52708;SDS011;38606;52.986;6.980;2023-07-31T12:53:28;2.40;;;0.70;;
52708;SDS011;38606;52.986;6.980;2023-07-31T12:55:54;0.98;;;0.40;;
52708;SDS011;38606;52.986;6.980;2023-07-31T12:58:21;0.75;;;0.50;;
52708;SDS011;38606;52.986;6.980;2023-07-31T13:00:47;0.73;;;0.40;;
52708;SDS011;38606;52.986;6.980;2023-07-31T13:03:12;0.77;;;0.30;;
52708;SDS011;38606;52.986;6.980;2023-07-31T13:05:38;1.92;;;0.60;;
52708;SDS011;38606;52.986;6.980;2023-07-31T13:08:04;0.90;;;0.40;;
52708;SDS011;38606;52.986;6.980;2023-07-31T13:10:30;1.92;;;0.77;;
52708;SDS011;38606;52.986;6.980;2023-07-31T13:12:56;2.10;;;0.65;;
52708;SDS011;38606;52.986;6.980;2023-07-31T13:15:22;0.85;;;0.50;;
52708;SDS011;38606;52.986;6.980;2023-07-31T13:17:48;1.58;;;0.57;;
52708;SDS011;38606;52.986;6.980;2023-07-31T13:20:13;1.50;;;0.50;;
52708;SDS011;38606;52.986;6.980;2023-07-31T13:22:39;1.17;;;0.70;;
52708;SDS011;38606;52.986;6.980;2023-07-31T13:25:05;2.53;;;1.17;;
52708;SDS011;38606;52.986;6.980;2023-07-31T13:27:31;2.17;;;0.70;;
52708;SDS011;38606;52.986;6.980;2023-07-31T13:29:57;2.10;;;0.55;;
52708;SDS011;38606;52.986;6.980;2023-07-31T13:32:23;1.83;;;0.52;;
52708;SDS011;38606;52.986;6.980;2023-07-31T13:34:49;1.30;;;0.55;;
52708;SDS011;38606;52.986;6.980;2023-07-31T13:37:15;0.90;;;0.60;;
52708;SDS011;38606;52.986;6.980;2023-07-31T13:39:41;2.20;;;0.60;;
52708;SDS011;38606;52.986;6.980;2023-07-31T13:42:07;1.52;;;0.90;;
52708;SDS011;38606;52.986;6.980;2023-07-31T13:44:37;2.30;;;1.30;;
52708;SDS011;38606;52.986;6.980;2023-07-31T13:47:03;2.50;;;0.90;;
52708;SDS011;38606;52.986;6.980;2023-07-31T13:49:29;2.58;;;1.30;;
52708;SDS011;38606;52.986;6.980;2023-07-31T13:51:55;2.20;;;1.10;;
52708;SDS011;38606;52.986;6.980;2023-07-31T13:54:22;2.85;;;1.20;;
52708;SDS011;38606;52.986;6.980;2023-07-31T13:56:48;2.30;;;1.23;;
52708;SDS011;38606;52.986;6.980;2023-07-31T13:59:14;2.75;;;1.08;;
52708;SDS011;38606;52.986;6.980;2023-07-31T14:01:43;5.55;;;1.35;;
52708;SDS011;38606;52.986;6.980;2023-07-31T14:04:09;8.18;;;1.77;;
52708;SDS011;38606;52.986;6.980;2023-07-31T14:06:35;4.57;;;1.40;;
52708;SDS011;38606;52.986;6.980;2023-07-31T14:09:01;4.78;;;1.65;;
52708;SDS011;38606;52.986;6.980;2023-07-31T14:11:27;4.80;;;1.80;;
52708;SDS011;38606;52.986;6.980;2023-07-31T14:13:55;6.93;;;2.15;;
52708;SDS011;38606;52.986;6.980;2023-07-31T14:16:21;4.50;;;1.55;;
52708;SDS011;38606;52.986;6.980;2023-07-31T14:18:47;4.40;;;2.08;;
52708;SDS011;38606;52.986;6.980;2023-07-31T14:21:13;8.70;;;2.00;;
52708;SDS011;38606;52.986;6.980;2023-07-31T14:23:39;6.10;;;1.95;;
52708;SDS011;38606;52.986;6.980;2023-07-31T14:26:05;7.18;;;1.80;;
52708;SDS011;38606;52.986;6.980;2023-07-31T14:28:31;4.97;;;1.70;;
52708;SDS011;38606;52.986;6.980;2023-07-31T14:30:56;4.43;;;1.65;;
52708;SDS011;38606;52.986;6.980;2023-07-31T14:33:22;4.60;;;1.95;;
52708;SDS011;38606;52.986;6.980;2023-07-31T14:35:48;7.93;;;2.33;;
52708;SDS011;38606;52.986;6.980;2023-07-31T14:38:14;7.80;;;2.40;;
52708;SDS011;38606;52.986;6.980;2023-07-31T14:40:40;7.90;;;2.25;;
52708;SDS011;38606;52.986;6.980;2023-07-31T14:43:06;4.85;;;1.73;;
52708;SDS011;38606;52.986;6.980;2023-07-31T14:45:32;5.47;;;2.03;;
52708;SDS011;38606;52.986;6.980;2023-07-31T14:47:57;6.57;;;2.42;;
52708;SDS011;38606;52.986;6.980;2023-07-31T14:50:23;5.72;;;1.95;;
52708;SDS011;38606;52.986;6.980;2023-07-31T14:52:50;6.70;;;2.33;;
52708;SDS011;38606;52.986;6.980;2023-07-31T14:55:16;8.02;;;2.20;;
52708;SDS011;38606;52.986;6.980;2023-07-31T14:57:43;4.30;;;2.53;;
52708;SDS011;38606;52.986;6.980;2023-07-31T15:00:08;7.18;;;2.70;;
52708;SDS011;38606;52.986;6.980;2023-07-31T15:02:35;5.60;;;2.28;;
52708;SDS011;38606;52.986;6.980;2023-07-31T15:05:02;6.15;;;2.50;;